sensor_id;sensor_type;location;lat;lon;timestamp;P1;durP1;ratioP1;P2;durP2;ratioP2
35074;SDS011;21260;34.984;32.490;2023-05-14T00:00:16;7.17;;;4.03;;
35074;SDS011;21260;34.984;32.490;2023-05-14T00:02:43;5.63;;;4.10;;
35074;SDS011;21260;34.984;32.490;2023-05-14T00:05:09;5.57;;;4.63;;
35074;SDS011;21260;34.984;32.490;2023-05-14T00:07:36;6.37;;;4.80;;
35074;SDS011;21260;34.984;32.490;2023-05-14T00:10:02;8.33;;;4.90;;
35074;SDS011;21260;34.984;32.490;2023-05-14T00:12:28;8.27;;;5.17;;
35074;SDS011;21260;34.984;32.490;2023-05-14T00:14:55;6.03;;;5.30;;
35074;SDS011;21260;34.984;32.490;2023-05-14T00:17:22;9.63;;;6.27;;
35074;SDS011;21260;34.984;32.490;2023-05-14T00:19:48;10.23;;;5.70;;
35074;SDS011;21260;34.984;32.490;2023-05-14T00:22:14;7.73;;;5.50;;
35074;SDS011;21260;34.984;32.490;2023-05-14T00:24:41;9.23;;;6.57;;
35074;SDS011;21260;34.984;32.490;2023-05-14T00:27:07;8.77;;;6.23;;
35074;SDS011;21260;34.984;32.490;2023-05-14T00:29:34;8.20;;;6.03;;
35074;SDS011;21260;34.984;32.490;2023-05-14T00:32:00;10.37;;;6.60;;
35074;SDS011;21260;34.984;32.490;2023-05-14T00:34:27;8.40;;;6.90;;
35074;SDS011;21260;34.984;32.490;2023-05-14T00:36:54;9.23;;;6.93;;
35074;SDS011;21260;34.984;32.490;2023-05-14T00:39:20;15.73;;;6.63;;
35074;SDS011;21260;34.984;32.490;2023-05-14T00:41:46;8.57;;;6.73;;
35074;SDS011;21260;34.984;32.490;2023-05-14T00:44:12;8.83;;;7.00;;
35074;SDS011;21260;34.984;32.490;2023-05-14T00:46:39;9.87;;;7.30;;
35074;SDS011;21260;34.984;32.490;2023-05-14T00:49:07;8.37;;;6.87;;
35074;SDS011;21260;34.984;32.490;2023-05-14T00:51:34;8.97;;;6.40;;
35074;SDS011;21260;34.984;32.490;2023-05-14T00:54:01;9.63;;;6.40;;
35074;SDS011;21260;34.984;32.490;2023-05-14T00:56:27;7.93;;;6.30;;
35074;SDS011;21260;34.984;32.490;2023-05-14T00:58:54;9.27;;;7.17;;
35074;SDS011;21260;34.984;32.490;2023-05-14T01:01:20;10.80;;;6.83;;
35074;SDS011;21260;34.984;32.490;2023-05-14T01:03:46;9.83;;;6.90;;
35074;SDS011;21260;34.984;32.490;2023-05-14T01:06:21;10.30;;;7.20;;
35074;SDS011;21260;34.984;32.490;2023-05-14T01:12:36;9.43;;;6.87;;
35074;SDS011;21260;34.984;32.490;2023-05-14T01:15:37;8.73;;;6.77;;
35074;SDS011;21260;34.984;32.490;2023-05-14T01:18:09;9.63;;;6.67;;
35074;SDS011;21260;34.984;32.490;2023-05-14T01:20:40;9.80;;;7.27;;
35074;SDS011;21260;34.984;32.490;2023-05-14T01:23:08;9.87;;;7.60;;
35074;SDS011;21260;34.984;32.490;2023-05-14T01:25:35;12.20;;;7.27;;
35074;SDS011;21260;34.984;32.490;2023-05-14T01:28:11;8.23;;;7.33;;
35074;SDS011;21260;34.984;32.490;2023-05-14T01:31:22;11.60;;;8.17;;
35074;SDS011;21260;34.984;32.490;2023-05-14T01:33:49;11.43;;;7.43;;
35074;SDS011;21260;34.984;32.490;2023-05-14T01:36:17;11.50;;;7.10;;
35074;SDS011;21260;34.984;32.490;2023-05-14T01:38:43;9.30;;;6.97;;
35074;SDS011;21260;34.984;32.490;2023-05-14T01:41:12;7.87;;;6.37;;
35074;SDS011;21260;34.984;32.490;2023-05-14T01:43:40;8.73;;;7.03;;
35074;SDS011;21260;34.984;32.490;2023-05-14T01:46:06;9.77;;;6.93;;
35074;SDS011;21260;34.984;32.490;2023-05-14T01:48:33;7.77;;;6.23;;
35074;SDS011;21260;34.984;32.490;2023-05-14T01:50:59;8.93;;;5.97;;
35074;SDS011;21260;34.984;32.490;2023-05-14T01:53:26;8.47;;;6.10;;
35074;SDS011;21260;34.984;32.490;2023-05-14T01:55:52;7.67;;;5.50;;
35074;SDS011;21260;34.984;32.490;2023-05-14T01:58:19;7.20;;;5.67;;
35074;SDS011;21260;34.984;32.490;2023-05-14T02:00:45;7.77;;;5.60;;
35074;SDS011;21260;34.984;32.490;2023-05-14T02:03:11;8.20;;;5.43;;
35074;SDS011;21260;34.984;32.490;2023-05-14T02:05:37;7.90;;;5.43;;
35074;SDS011;21260;34.984;32.490;2023-05-14T02:08:04;8.43;;;5.17;;
35074;SDS011;21260;34.984;32.490;2023-05-14T02:10:30;6.03;;;5.30;;
35074;SDS011;21260;34.984;32.490;2023-05-14T02:12:56;10.20;;;5.67;;
35074;SDS011;21260;34.984;32.490;2023-05-14T02:15:22;9.23;;;5.67;;
35074;SDS011;21260;34.984;32.490;2023-05-14T02:17:48;8.17;;;5.53;;
35074;SDS011;21260;34.984;32.490;2023-05-14T02:20:15;8.67;;;5.87;;
35074;SDS011;21260;34.984;32.490;2023-05-14T02:22:41;7.33;;;6.00;;
35074;SDS011;21260;34.984;32.490;2023-05-14T02:25:09;6.77;;;5.80;;
35074;SDS011;21260;34.984;32.490;2023-05-14T02:27:36;9.00;;;5.73;;
35074;SDS011;21260;34.984;32.490;2023-05-14T02:30:03;10.33;;;5.70;;
35074;SDS011;21260;34.984;32.490;2023-05-14T02:32:30;7.77;;;5.60;;
35074;SDS011;21260;34.984;32.490;2023-05-14T02:34:56;8.50;;;5.70;;
35074;SDS011;21260;34.984;32.490;2023-05-14T02:37:22;7.90;;;5.40;;
35074;SDS011;21260;34.984;32.490;2023-05-14T02:39:48;11.23;;;6.37;;
35074;SDS011;21260;34.984;32.490;2023-05-14T02:42:15;7.57;;;5.97;;
35074;SDS011;21260;34.984;32.490;2023-05-14T02:44:41;8.27;;;5.83;;
35074;SDS011;21260;34.984;32.490;2023-05-14T02:47:07;12.13;;;6.13;;
35074;SDS011;21260;34.984;32.490;2023-05-14T02:49:34;11.20;;;6.77;;
35074;SDS011;21260;34.984;32.490;2023-05-14T02:52:00;10.87;;;6.83;;
35074;SDS011;21260;34.984;32.490;2023-05-14T02:54:26;11.57;;;7.97;;
35074;SDS011;21260;34.984;32.490;2023-05-14T02:56:52;8.33;;;6.93;;
35074;SDS011;21260;34.984;32.490;2023-05-14T02:59:19;10.77;;;6.93;;
35074;SDS011;21260;34.984;32.490;2023-05-14T03:01:45;9.70;;;6.87;;
35074;SDS011;21260;34.984;32.490;2023-05-14T03:04:11;9.70;;;6.60;;
35074;SDS011;21260;34.984;32.490;2023-05-14T03:06:37;13.30;;;6.30;;
35074;SDS011;21260;34.984;32.490;2023-05-14T03:09:03;11.23;;;6.60;;
35074;SDS011;21260;34.984;32.490;2023-05-14T03:11:30;9.80;;;6.70;;
35074;SDS011;21260;34.984;32.490;2023-05-14T03:13:56;8.73;;;5.70;;
35074;SDS011;21260;34.984;32.490;2023-05-14T03:16:22;7.93;;;5.60;;
35074;SDS011;21260;34.984;32.490;2023-05-14T03:18:48;9.20;;;5.47;;
35074;SDS011;21260;34.984;32.490;2023-05-14T03:21:14;9.70;;;5.07;;
35074;SDS011;21260;34.984;32.490;2023-05-14T03:23:41;7.23;;;5.37;;
35074;SDS011;21260;34.984;32.490;2023-05-14T03:26:07;9.07;;;5.57;;
35074;SDS011;21260;34.984;32.490;2023-05-14T03:28:33;10.33;;;6.00;;
35074;SDS011;21260;34.984;32.490;2023-05-14T03:30:59;7.17;;;5.67;;
35074;SDS011;21260;34.984;32.490;2023-05-14T03:33:25;9.77;;;6.30;;
35074;SDS011;21260;34.984;32.490;2023-05-14T03:35:52;13.00;;;6.43;;
35074;SDS011;21260;34.984;32.490;2023-05-14T03:38:18;8.50;;;6.23;;
35074;SDS011;21260;34.984;32.490;2023-05-14T03:40:44;9.83;;;6.10;;
35074;SDS011;21260;34.984;32.490;2023-05-14T03:43:11;11.70;;;6.17;;
35074;SDS011;21260;34.984;32.490;2023-05-14T03:45:37;8.00;;;6.43;;
35074;SDS011;21260;34.984;32.490;2023-05-14T03:48:04;8.60;;;6.10;;
35074;SDS011;21260;34.984;32.490;2023-05-14T03:50:30;6.77;;;6.00;;
35074;SDS011;21260;34.984;32.490;2023-05-14T03:52:57;8.97;;;6.43;;
35074;SDS011;21260;34.984;32.490;2023-05-14T03:55:23;9.57;;;6.20;;
35074;SDS011;21260;34.984;32.490;2023-05-14T03:57:50;9.87;;;6.33;;
35074;SDS011;21260;34.984;32.490;2023-05-14T04:00:16;10.33;;;5.97;;
35074;SDS011;21260;34.984;32.490;2023-05-14T04:02:42;10.27;;;6.00;;
35074;SDS011;21260;34.984;32.490;2023-05-14T04:05:08;9.53;;;6.70;;
35074;SDS011;21260;34.984;32.490;2023-05-14T04:07:35;7.17;;;5.10;;
35074;SDS011;21260;34.984;32.490;2023-05-14T04:10:02;7.57;;;4.60;;
35074;SDS011;21260;34.984;32.490;2023-05-14T04:12:28;6.43;;;5.07;;
35074;SDS011;21260;34.984;32.490;2023-05-14T04:14:55;6.53;;;3.90;;
35074;SDS011;21260;34.984;32.490;2023-05-14T04:17:22;6.40;;;4.27;;
35074;SDS011;21260;34.984;32.490;2023-05-14T04:19:48;6.60;;;3.50;;
35074;SDS011;21260;34.984;32.490;2023-05-14T04:22:15;7.87;;;3.40;;
35074;SDS011;21260;34.984;32.490;2023-05-14T04:24:41;4.93;;;3.47;;
35074;SDS011;21260;34.984;32.490;2023-05-14T04:27:07;6.40;;;3.30;;
35074;SDS011;21260;34.984;32.490;2023-05-14T04:29:33;7.97;;;3.67;;
35074;SDS011;21260;34.984;32.490;2023-05-14T04:31:59;11.07;;;3.90;;
35074;SDS011;21260;34.984;32.490;2023-05-14T04:34:26;7.03;;;3.33;;
35074;SDS011;21260;34.984;32.490;2023-05-14T04:36:52;5.13;;;3.73;;
35074;SDS011;21260;34.984;32.490;2023-05-14T04:39:18;7.93;;;3.73;;
35074;SDS011;21260;34.984;32.490;2023-05-14T04:41:44;8.17;;;3.27;;
35074;SDS011;21260;34.984;32.490;2023-05-14T04:44:11;4.67;;;3.10;;
35074;SDS011;21260;34.984;32.490;2023-05-14T04:46:37;11.43;;;3.17;;
35074;SDS011;21260;34.984;32.490;2023-05-14T04:49:04;7.03;;;3.37;;
35074;SDS011;21260;34.984;32.490;2023-05-14T04:51:30;6.43;;;2.80;;
35074;SDS011;21260;34.984;32.490;2023-05-14T04:53:56;4.97;;;2.50;;
35074;SDS011;21260;34.984;32.490;2023-05-14T04:56:22;4.87;;;2.53;;
35074;SDS011;21260;34.984;32.490;2023-05-14T04:58:49;5.87;;;2.70;;
35074;SDS011;21260;34.984;32.490;2023-05-14T05:01:15;10.50;;;2.80;;
35074;SDS011;21260;34.984;32.490;2023-05-14T05:03:42;6.10;;;2.50;;
35074;SDS011;21260;34.984;32.490;2023-05-14T05:06:08;9.83;;;3.10;;
35074;SDS011;21260;34.984;32.490;2023-05-14T05:08:35;10.93;;;3.73;;
35074;SDS011;21260;34.984;32.490;2023-05-14T05:11:01;12.27;;;3.10;;
35074;SDS011;21260;34.984;32.490;2023-05-14T05:13:27;14.00;;;3.17;;
35074;SDS011;21260;34.984;32.490;2023-05-14T05:15:54;10.57;;;3.50;;
35074;SDS011;21260;34.984;32.490;2023-05-14T05:18:20;8.77;;;3.50;;
35074;SDS011;21260;34.984;32.490;2023-05-14T05:20:46;8.47;;;3.23;;
35074;SDS011;21260;34.984;32.490;2023-05-14T05:23:12;14.53;;;3.60;;
35074;SDS011;21260;34.984;32.490;2023-05-14T05:25:39;7.50;;;3.20;;
35074;SDS011;21260;34.984;32.490;2023-05-14T05:28:05;8.93;;;3.30;;
35074;SDS011;21260;34.984;32.490;2023-05-14T05:30:32;10.80;;;3.93;;
35074;SDS011;21260;34.984;32.490;2023-05-14T05:32:58;7.13;;;3.43;;
35074;SDS011;21260;34.984;32.490;2023-05-14T05:35:25;9.43;;;3.87;;
35074;SDS011;21260;34.984;32.490;2023-05-14T05:37:52;8.23;;;3.87;;
35074;SDS011;21260;34.984;32.490;2023-05-14T05:40:18;8.70;;;3.53;;
35074;SDS011;21260;34.984;32.490;2023-05-14T05:42:44;8.03;;;4.13;;
35074;SDS011;21260;34.984;32.490;2023-05-14T05:45:10;9.00;;;3.90;;
35074;SDS011;21260;34.984;32.490;2023-05-14T05:47:36;11.07;;;3.40;;
35074;SDS011;21260;34.984;32.490;2023-05-14T05:50:03;5.33;;;3.77;;
35074;SDS011;21260;34.984;32.490;2023-05-14T05:52:30;8.00;;;4.10;;
35074;SDS011;21260;34.984;32.490;2023-05-14T05:54:56;6.57;;;4.00;;
35074;SDS011;21260;34.984;32.490;2023-05-14T05:57:22;10.10;;;4.37;;
35074;SDS011;21260;34.984;32.490;2023-05-14T05:59:51;9.03;;;4.17;;
35074;SDS011;21260;34.984;32.490;2023-05-14T06:02:17;8.00;;;4.07;;
35074;SDS011;21260;34.984;32.490;2023-05-14T06:07:36;7.80;;;3.90;;
35074;SDS011;21260;34.984;32.490;2023-05-14T06:10:03;10.60;;;4.63;;
35074;SDS011;21260;34.984;32.490;2023-05-14T06:12:30;8.50;;;5.23;;
35074;SDS011;21260;34.984;32.490;2023-05-14T06:14:56;13.13;;;5.30;;
35074;SDS011;21260;34.984;32.490;2023-05-14T06:17:23;12.00;;;5.27;;
35074;SDS011;21260;34.984;32.490;2023-05-14T06:19:50;13.63;;;5.43;;
35074;SDS011;21260;34.984;32.490;2023-05-14T06:22:17;9.13;;;5.50;;
35074;SDS011;21260;34.984;32.490;2023-05-14T06:24:43;8.90;;;5.57;;
35074;SDS011;21260;34.984;32.490;2023-05-14T06:27:10;13.53;;;5.83;;
35074;SDS011;21260;34.984;32.490;2023-05-14T06:29:36;11.07;;;6.10;;
35074;SDS011;21260;34.984;32.490;2023-05-14T06:32:03;10.93;;;5.90;;
35074;SDS011;21260;34.984;32.490;2023-05-14T06:34:30;9.37;;;5.67;;
35074;SDS011;21260;34.984;32.490;2023-05-14T06:36:56;12.23;;;6.40;;
35074;SDS011;21260;34.984;32.490;2023-05-14T06:39:23;11.80;;;7.07;;
35074;SDS011;21260;34.984;32.490;2023-05-14T06:41:49;13.30;;;6.60;;
35074;SDS011;21260;34.984;32.490;2023-05-14T06:44:17;11.53;;;6.57;;
35074;SDS011;21260;34.984;32.490;2023-05-14T06:46:44;13.43;;;7.17;;
35074;SDS011;21260;34.984;32.490;2023-05-14T06:49:10;13.50;;;6.73;;
35074;SDS011;21260;34.984;32.490;2023-05-14T06:51:36;15.20;;;7.10;;
35074;SDS011;21260;34.984;32.490;2023-05-14T06:54:03;18.53;;;7.90;;
35074;SDS011;21260;34.984;32.490;2023-05-14T06:56:29;13.80;;;7.27;;
35074;SDS011;21260;34.984;32.490;2023-05-14T06:58:55;15.90;;;8.47;;
35074;SDS011;21260;34.984;32.490;2023-05-14T07:01:21;18.97;;;8.73;;
35074;SDS011;21260;34.984;32.490;2023-05-14T07:03:48;23.17;;;8.60;;
35074;SDS011;21260;34.984;32.490;2023-05-14T07:06:14;15.13;;;8.43;;
35074;SDS011;21260;34.984;32.490;2023-05-14T07:08:41;22.93;;;8.87;;
35074;SDS011;21260;34.984;32.490;2023-05-14T07:11:10;15.27;;;8.30;;
35074;SDS011;21260;34.984;32.490;2023-05-14T07:13:39;16.23;;;8.70;;
35074;SDS011;21260;34.984;32.490;2023-05-14T07:16:07;17.93;;;9.10;;
35074;SDS011;21260;34.984;32.490;2023-05-14T07:18:34;21.47;;;9.53;;
35074;SDS011;21260;34.984;32.490;2023-05-14T07:21:03;16.30;;;8.43;;
35074;SDS011;21260;34.984;32.490;2023-05-14T07:23:31;19.03;;;9.53;;
35074;SDS011;21260;34.984;32.490;2023-05-14T07:26:01;18.77;;;9.63;;
35074;SDS011;21260;34.984;32.490;2023-05-14T07:28:31;15.23;;;7.90;;
35074;SDS011;21260;34.984;32.490;2023-05-14T07:30:58;17.87;;;9.37;;
35074;SDS011;21260;34.984;32.490;2023-05-14T07:33:24;14.17;;;8.57;;
35074;SDS011;21260;34.984;32.490;2023-05-14T07:35:51;15.30;;;8.53;;
35074;SDS011;21260;34.984;32.490;2023-05-14T07:38:18;15.90;;;8.73;;
35074;SDS011;21260;34.984;32.490;2023-05-14T07:40:45;16.73;;;8.77;;
35074;SDS011;21260;34.984;32.490;2023-05-14T07:43:11;15.90;;;8.57;;
35074;SDS011;21260;34.984;32.490;2023-05-14T07:45:38;15.27;;;8.63;;
35074;SDS011;21260;34.984;32.490;2023-05-14T07:48:04;22.90;;;9.00;;
35074;SDS011;21260;34.984;32.490;2023-05-14T07:50:31;18.70;;;9.03;;
35074;SDS011;21260;34.984;32.490;2023-05-14T07:52:58;21.37;;;9.20;;
35074;SDS011;21260;34.984;32.490;2023-05-14T07:55:24;13.77;;;9.03;;
35074;SDS011;21260;34.984;32.490;2023-05-14T07:57:50;18.57;;;8.90;;
35074;SDS011;21260;34.984;32.490;2023-05-14T08:00:17;16.50;;;9.27;;
35074;SDS011;21260;34.984;32.490;2023-05-14T08:02:43;18.53;;;9.47;;
35074;SDS011;21260;34.984;32.490;2023-05-14T08:05:10;14.50;;;9.13;;
35074;SDS011;21260;34.984;32.490;2023-05-14T08:07:36;19.53;;;8.77;;
35074;SDS011;21260;34.984;32.490;2023-05-14T08:10:02;14.53;;;8.53;;
35074;SDS011;21260;34.984;32.490;2023-05-14T08:12:28;15.63;;;8.60;;
35074;SDS011;21260;34.984;32.490;2023-05-14T08:14:55;18.57;;;8.53;;
35074;SDS011;21260;34.984;32.490;2023-05-14T08:17:22;21.77;;;9.70;;
35074;SDS011;21260;34.984;32.490;2023-05-14T08:19:48;18.40;;;9.03;;
35074;SDS011;21260;34.984;32.490;2023-05-14T08:22:14;16.00;;;8.30;;
35074;SDS011;21260;34.984;32.490;2023-05-14T08:24:40;17.43;;;8.90;;
35074;SDS011;21260;34.984;32.490;2023-05-14T08:27:07;16.80;;;9.20;;
35074;SDS011;21260;34.984;32.490;2023-05-14T08:29:34;16.63;;;8.87;;
35074;SDS011;21260;34.984;32.490;2023-05-14T08:32:01;14.73;;;8.43;;
35074;SDS011;21260;34.984;32.490;2023-05-14T08:34:27;17.50;;;8.77;;
35074;SDS011;21260;34.984;32.490;2023-05-14T08:36:53;22.33;;;9.63;;
35074;SDS011;21260;34.984;32.490;2023-05-14T08:39:20;15.70;;;8.30;;
35074;SDS011;21260;34.984;32.490;2023-05-14T08:41:46;19.27;;;9.10;;
35074;SDS011;21260;34.984;32.490;2023-05-14T08:44:43;16.77;;;8.73;;
35074;SDS011;21260;34.984;32.490;2023-05-14T08:47:17;15.30;;;8.77;;
35074;SDS011;21260;34.984;32.490;2023-05-14T08:49:51;17.33;;;8.30;;
35074;SDS011;21260;34.984;32.490;2023-05-14T08:52:29;15.23;;;8.97;;
35074;SDS011;21260;34.984;32.490;2023-05-14T08:54:57;17.33;;;8.77;;
35074;SDS011;21260;34.984;32.490;2023-05-14T08:57:27;20.73;;;9.30;;
35074;SDS011;21260;34.984;32.490;2023-05-14T08:59:57;17.57;;;8.27;;
35074;SDS011;21260;34.984;32.490;2023-05-14T09:02:26;14.63;;;8.53;;
35074;SDS011;21260;34.984;32.490;2023-05-14T09:04:58;16.27;;;8.50;;
35074;SDS011;21260;34.984;32.490;2023-05-14T09:07:26;17.97;;;8.90;;
35074;SDS011;21260;34.984;32.490;2023-05-14T09:09:53;14.07;;;8.37;;
35074;SDS011;21260;34.984;32.490;2023-05-14T09:12:20;15.40;;;8.00;;
35074;SDS011;21260;34.984;32.490;2023-05-14T09:14:47;14.17;;;8.23;;
35074;SDS011;21260;34.984;32.490;2023-05-14T09:17:15;15.10;;;7.53;;
35074;SDS011;21260;34.984;32.490;2023-05-14T09:19:44;16.53;;;7.93;;
35074;SDS011;21260;34.984;32.490;2023-05-14T09:22:14;16.50;;;8.80;;
35074;SDS011;21260;34.984;32.490;2023-05-14T09:24:42;14.38;;;8.05;;
35074;SDS011;21260;34.984;32.490;2023-05-14T09:27:10;18.50;;;8.57;;
35074;SDS011;21260;34.984;32.490;2023-05-14T09:29:46;15.70;;;7.60;;
35074;SDS011;21260;34.984;32.490;2023-05-14T09:32:13;14.67;;;8.27;;
35074;SDS011;21260;34.984;32.490;2023-05-14T09:34:39;12.98;;;7.65;;
35074;SDS011;21260;34.984;32.490;2023-05-14T09:37:07;16.30;;;8.40;;
35074;SDS011;21260;34.984;32.490;2023-05-14T09:39:34;16.37;;;7.90;;
35074;SDS011;21260;34.984;32.490;2023-05-14T09:42:02;12.93;;;8.05;;
35074;SDS011;21260;34.984;32.490;2023-05-14T09:44:30;15.15;;;8.10;;
35074;SDS011;21260;34.984;32.490;2023-05-14T09:46:56;14.27;;;7.75;;
35074;SDS011;21260;34.984;32.490;2023-05-14T09:49:23;14.88;;;7.68;;
35074;SDS011;21260;34.984;32.490;2023-05-14T09:51:49;16.75;;;8.23;;
35074;SDS011;21260;34.984;32.490;2023-05-14T09:54:15;15.18;;;7.45;;
35074;SDS011;21260;34.984;32.490;2023-05-14T09:56:42;14.05;;;7.47;;
35074;SDS011;21260;34.984;32.490;2023-05-14T09:59:09;15.15;;;7.30;;
35074;SDS011;21260;34.984;32.490;2023-05-14T10:01:35;13.02;;;7.47;;
35074;SDS011;21260;34.984;32.490;2023-05-14T10:04:05;15.02;;;7.45;;
35074;SDS011;21260;34.984;32.490;2023-05-14T10:06:37;26.10;;;7.97;;
35074;SDS011;21260;34.984;32.490;2023-05-14T10:09:04;20.63;;;8.45;;
35074;SDS011;21260;34.984;32.490;2023-05-14T10:11:41;14.20;;;8.20;;
35074;SDS011;21260;34.984;32.490;2023-05-14T10:14:13;13.73;;;7.63;;
35074;SDS011;21260;34.984;32.490;2023-05-14T10:16:53;18.52;;;8.18;;
35074;SDS011;21260;34.984;32.490;2023-05-14T10:19:24;13.55;;;7.80;;
35074;SDS011;21260;34.984;32.490;2023-05-14T10:21:56;19.40;;;7.85;;
35074;SDS011;21260;34.984;32.490;2023-05-14T10:24:29;15.75;;;8.02;;
35074;SDS011;21260;34.984;32.490;2023-05-14T10:26:57;18.98;;;8.02;;
35074;SDS011;21260;34.984;32.490;2023-05-14T10:29:33;16.77;;;7.50;;
35074;SDS011;21260;34.984;32.490;2023-05-14T10:32:05;17.77;;;8.57;;
35074;SDS011;21260;34.984;32.490;2023-05-14T10:37:09;20.42;;;8.95;;
35074;SDS011;21260;34.984;32.490;2023-05-14T10:42:32;20.08;;;8.40;;
35074;SDS011;21260;34.984;32.490;2023-05-14T10:45:05;14.82;;;8.30;;
35074;SDS011;21260;34.984;32.490;2023-05-14T10:47:38;20.00;;;9.00;;
35074;SDS011;21260;34.984;32.490;2023-05-14T10:50:08;16.50;;;8.55;;
35074;SDS011;21260;34.984;32.490;2023-05-14T10:52:41;19.27;;;8.43;;
35074;SDS011;21260;34.984;32.490;2023-05-14T10:55:11;21.73;;;8.52;;
35074;SDS011;21260;34.984;32.490;2023-05-14T10:57:41;16.25;;;7.95;;
35074;SDS011;21260;34.984;32.490;2023-05-14T11:00:11;13.95;;;8.55;;
35074;SDS011;21260;34.984;32.490;2023-05-14T11:02:40;15.77;;;8.95;;
35074;SDS011;21260;34.984;32.490;2023-05-14T11:05:12;17.63;;;9.48;;
35074;SDS011;21260;34.984;32.490;2023-05-14T11:07:42;18.58;;;9.07;;
35074;SDS011;21260;34.984;32.490;2023-05-14T11:10:17;17.05;;;8.48;;
35074;SDS011;21260;34.984;32.490;2023-05-14T11:12:46;19.75;;;9.35;;
35074;SDS011;21260;34.984;32.490;2023-05-14T11:15:19;14.20;;;7.78;;
35074;SDS011;21260;34.984;32.490;2023-05-14T11:17:48;20.70;;;8.20;;
35074;SDS011;21260;34.984;32.490;2023-05-14T11:20:16;23.38;;;8.82;;
35074;SDS011;21260;34.984;32.490;2023-05-14T11:22:44;20.45;;;9.15;;
35074;SDS011;21260;34.984;32.490;2023-05-14T11:25:12;18.83;;;7.88;;
35074;SDS011;21260;34.984;32.490;2023-05-14T11:27:41;21.45;;;8.60;;
35074;SDS011;21260;34.984;32.490;2023-05-14T11:32:44;22.75;;;9.48;;
35074;SDS011;21260;34.984;32.490;2023-05-14T11:35:13;17.52;;;8.05;;
35074;SDS011;21260;34.984;32.490;2023-05-14T11:37:40;18.38;;;8.23;;
35074;SDS011;21260;34.984;32.490;2023-05-14T11:40:08;21.42;;;8.57;;
35074;SDS011;21260;34.984;32.490;2023-05-14T11:42:43;21.15;;;9.30;;
35074;SDS011;21260;34.984;32.490;2023-05-14T11:45:10;19.92;;;8.50;;
35074;SDS011;21260;34.984;32.490;2023-05-14T11:47:39;21.88;;;9.35;;
35074;SDS011;21260;34.984;32.490;2023-05-14T11:50:06;20.20;;;8.55;;
35074;SDS011;21260;34.984;32.490;2023-05-14T11:52:37;17.58;;;8.05;;
35074;SDS011;21260;34.984;32.490;2023-05-14T11:55:09;20.30;;;8.52;;
35074;SDS011;21260;34.984;32.490;2023-05-14T11:57:37;21.27;;;9.18;;
35074;SDS011;21260;34.984;32.490;2023-05-14T12:00:06;14.65;;;7.63;;
35074;SDS011;21260;34.984;32.490;2023-05-14T12:02:37;16.92;;;7.82;;
35074;SDS011;21260;34.984;32.490;2023-05-14T12:05:04;22.50;;;8.65;;
35074;SDS011;21260;34.984;32.490;2023-05-14T12:07:31;22.35;;;9.00;;
35074;SDS011;21260;34.984;32.490;2023-05-14T12:09:59;14.88;;;7.97;;
35074;SDS011;21260;34.984;32.490;2023-05-14T12:12:32;18.67;;;7.97;;
35074;SDS011;21260;34.984;32.490;2023-05-14T12:15:13;24.90;;;8.20;;
35074;SDS011;21260;34.984;32.490;2023-05-14T12:17:41;19.27;;;8.20;;
35074;SDS011;21260;34.984;32.490;2023-05-14T12:20:13;20.48;;;8.60;;
35074;SDS011;21260;34.984;32.490;2023-05-14T12:22:40;18.13;;;8.77;;
35074;SDS011;21260;34.984;32.490;2023-05-14T12:25:10;18.95;;;8.63;;
35074;SDS011;21260;34.984;32.490;2023-05-14T12:27:38;18.17;;;8.57;;
35074;SDS011;21260;34.984;32.490;2023-05-14T12:30:05;16.25;;;8.07;;
35074;SDS011;21260;34.984;32.490;2023-05-14T12:32:36;19.50;;;8.10;;
35074;SDS011;21260;34.984;32.490;2023-05-14T12:35:05;18.38;;;8.38;;
35074;SDS011;21260;34.984;32.490;2023-05-14T12:37:32;21.50;;;7.57;;
35074;SDS011;21260;34.984;32.490;2023-05-14T12:40:00;15.57;;;7.90;;
35074;SDS011;21260;34.984;32.490;2023-05-14T12:42:29;16.80;;;8.63;;
35074;SDS011;21260;34.984;32.490;2023-05-14T12:44:55;26.65;;;8.95;;
35074;SDS011;21260;34.984;32.490;2023-05-14T12:47:21;17.50;;;8.55;;
35074;SDS011;21260;34.984;32.490;2023-05-14T12:49:48;13.68;;;7.55;;
35074;SDS011;21260;34.984;32.490;2023-05-14T12:52:14;19.77;;;8.48;;
35074;SDS011;21260;34.984;32.490;2023-05-14T12:54:41;18.42;;;7.45;;
35074;SDS011;21260;34.984;32.490;2023-05-14T12:57:07;19.75;;;8.82;;
35074;SDS011;21260;34.984;32.490;2023-05-14T12:59:33;19.30;;;8.30;;
35074;SDS011;21260;34.984;32.490;2023-05-14T13:02:00;14.07;;;8.10;;
35074;SDS011;21260;34.984;32.490;2023-05-14T13:04:26;17.80;;;7.90;;
35074;SDS011;21260;34.984;32.490;2023-05-14T13:06:52;14.15;;;7.75;;
35074;SDS011;21260;34.984;32.490;2023-05-14T13:09:18;22.10;;;8.48;;
35074;SDS011;21260;34.984;32.490;2023-05-14T13:11:45;19.90;;;8.00;;
35074;SDS011;21260;34.984;32.490;2023-05-14T13:14:11;14.68;;;7.80;;
35074;SDS011;21260;34.984;32.490;2023-05-14T13:16:37;20.52;;;8.73;;
35074;SDS011;21260;34.984;32.490;2023-05-14T13:19:03;17.35;;;7.50;;
35074;SDS011;21260;34.984;32.490;2023-05-14T13:21:30;16.42;;;7.15;;
35074;SDS011;21260;34.984;32.490;2023-05-14T13:23:56;13.00;;;7.18;;
35074;SDS011;21260;34.984;32.490;2023-05-14T13:26:22;19.90;;;7.30;;
35074;SDS011;21260;34.984;32.490;2023-05-14T13:28:50;18.55;;;7.28;;
35074;SDS011;21260;34.984;32.490;2023-05-14T13:31:16;16.65;;;7.72;;
35074;SDS011;21260;34.984;32.490;2023-05-14T13:33:43;17.55;;;7.07;;
35074;SDS011;21260;34.984;32.490;2023-05-14T13:36:13;16.27;;;7.40;;
35074;SDS011;21260;34.984;32.490;2023-05-14T13:38:40;14.18;;;7.30;;
35074;SDS011;21260;34.984;32.490;2023-05-14T13:41:06;19.05;;;7.03;;
35074;SDS011;21260;34.984;32.490;2023-05-14T13:43:33;19.63;;;6.93;;
35074;SDS011;21260;34.984;32.490;2023-05-14T13:46:00;16.17;;;7.07;;
35074;SDS011;21260;34.984;32.490;2023-05-14T13:48:29;15.13;;;7.00;;
35074;SDS011;21260;34.984;32.490;2023-05-14T13:50:55;19.42;;;7.00;;
35074;SDS011;21260;34.984;32.490;2023-05-14T13:53:23;16.58;;;7.82;;
35074;SDS011;21260;34.984;32.490;2023-05-14T13:55:49;14.15;;;6.72;;
35074;SDS011;21260;34.984;32.490;2023-05-14T13:58:20;15.27;;;6.22;;
35074;SDS011;21260;34.984;32.490;2023-05-14T14:00:48;17.50;;;7.07;;
35074;SDS011;21260;34.984;32.490;2023-05-14T14:03:15;15.77;;;7.07;;
35074;SDS011;21260;34.984;32.490;2023-05-14T14:05:42;15.95;;;7.50;;
35074;SDS011;21260;34.984;32.490;2023-05-14T14:08:08;18.88;;;7.68;;
35074;SDS011;21260;34.984;32.490;2023-05-14T14:10:35;16.45;;;7.25;;
35074;SDS011;21260;34.984;32.490;2023-05-14T14:13:05;15.52;;;6.85;;
35074;SDS011;21260;34.984;32.490;2023-05-14T14:15:32;12.30;;;6.57;;
35074;SDS011;21260;34.984;32.490;2023-05-14T14:17:58;17.60;;;7.82;;
35074;SDS011;21260;34.984;32.490;2023-05-14T14:20:24;15.52;;;7.25;;
35074;SDS011;21260;34.984;32.490;2023-05-14T14:22:50;17.70;;;7.55;;
35074;SDS011;21260;34.984;32.490;2023-05-14T14:25:17;17.27;;;6.93;;
35074;SDS011;21260;34.984;32.490;2023-05-14T14:27:44;15.27;;;6.78;;
35074;SDS011;21260;34.984;32.490;2023-05-14T14:30:11;14.77;;;7.03;;
35074;SDS011;21260;34.984;32.490;2023-05-14T14:32:41;19.92;;;6.75;;
35074;SDS011;21260;34.984;32.490;2023-05-14T14:35:13;17.08;;;7.03;;
35074;SDS011;21260;34.984;32.490;2023-05-14T14:37:41;15.60;;;7.07;;
35074;SDS011;21260;34.984;32.490;2023-05-14T14:40:13;17.90;;;7.25;;
35074;SDS011;21260;34.984;32.490;2023-05-14T14:42:40;12.43;;;6.20;;